Alexander 3 — SW6137 — position and weather

sailwx.info

Track history (hours):
 
Tides and Currents Weather Stations Pressure Air Temp Water Temp Dewpoint Dewpoint Depression Visibility Wind Speed Wind Dir Waves Ship Positions

Alexander 3

Last reported at 2017-Mar-23 11:33 UTC. Time now 2017-Mar-23 12:33 UTC.
Position N 37°57' E 023°36'.

Length 38 m; draft 5.6 m.

Type: Tug. MMSI: 240733000.

Date/timePositionNaut miles runAvg speedWind from/ knotsBaromVisibWave heightAir tempDewpointWater temp
2017-Mar-23 11:33N 37°57' E 023°36'1 0.8
2017-Mar-23 10:33N 37°57' E 023°37'0 0.0
2017-Mar-23 09:33N 37°57' E 023°37'0 0.0
2017-Mar-23 08:33N 37°57' E 023°37'0 0.4
2017-Mar-23 07:24N 37°57' E 023°36'1 0.9
2017-Mar-23 06:34N 37°57' E 023°35'0 0.3
2017-Mar-23 05:33N 37°57' E 023°35'0 0.1
2017-Mar-23 04:34N 37°57' E 023°35'2 0.1
2017-Mar-22 12:12N 37°56' E 023°37'2 3.0
2017-Mar-22 11:33N 37°57' E 023°35'1 1.1
2017-Mar-22 10:33N 37°57' E 023°37'0 0.0
2017-Mar-22 09:34N 37°57' E 023°37'0 0.0
2017-Mar-22 08:31N 37°57' E 023°37'1 1.4
2017-Mar-22 07:34N 37°57' E 023°35'1 0.8
2017-Mar-22 06:23N 37°57' E 023°36'1 0.9
2017-Mar-22 05:33N 37°57' E 023°35'2 2.0
2017-Mar-22 04:33N 37°56' E 023°37'0 0.0
2017-Mar-22 03:30N 37°56' E 023°37'0 0.0
2017-Mar-21 12:29N 37°56' E 023°37'2 2.3
2017-Mar-21 11:33N 37°57' E 023°35'1 1.4
2017-Mar-21 10:33N 37°58' E 023°36'0 0.2
2017-Mar-21 09:33N 37°57' E 023°37'1 1.2
2017-Mar-21 08:33N 37°57' E 023°35'0 0.0
2017-Mar-21 07:33N 37°57' E 023°35'0 0.0
2017-Mar-21 06:29N 37°57' E 023°35'1 1.4
2017-Mar-21 05:33N 37°56' E 023°36'1 1.1
2017-Mar-21 04:32N 37°56' E 023°37'0 0.0
2017-Mar-21 02:27N 37°56' E 023°37'0 0.0
2017-Mar-21 01:32N 37°56' E 023°37'0 0.0
2017-Mar-21 00:30N 37°56' E 023°37'0 0.0
2017-Mar-20 23:32N 37°56' E 023°37'0 0.0
2017-Mar-20 22:32N 37°56' E 023°37'9 9.6
2017-Mar-20 21:33N 37°52' E 023°27'7 7.1
2017-Mar-20 20:34N 37°58' E 023°23'1 1.2
2017-Mar-20 19:33N 37°58' E 023°24'1 0.6
2017-Mar-20 18:33N 37°58' E 023°24'1 0.6
2017-Mar-20 17:34N 37°58' E 023°24'0 0.0
2017-Mar-20 16:33N 37°58' E 023°24'0 0.0
2017-Mar-20 15:33N 37°58' E 023°24'0 0.0
2017-Mar-20 14:34N 37°58' E 023°24'0 0.0
2017-Mar-20 13:33N 37°58' E 023°24'0 0.0
2017-Mar-20 12:33N 37°58' E 023°24'0 0.0
2017-Mar-20 11:33N 37°58' E 023°24'0 0.0
2017-Mar-20 10:33N 37°58' E 023°24'0 0.0
2017-Mar-20 09:33N 37°58' E 023°24'0 0.0
2017-Mar-20 08:34N 37°58' E 023°24'0 0.0
2017-Mar-20 07:33N 37°58' E 023°24'0 0.0
2017-Mar-20 06:33N 37°58' E 023°24'0 0.0
2017-Mar-20 05:33N 37°58' E 023°24'0 0.0
2017-Mar-20 04:33N 37°58' E 023°24'0 0.0
2017-Mar-20 03:34N 37°58' E 023°24'0 0.0
2017-Mar-20 02:33N 37°58' E 023°24'0 0.0
2017-Mar-20 01:34N 37°58' E 023°24'0 0.0
2017-Mar-20 00:34N 37°58' E 023°24'0 0.0
2017-Mar-19 23:34N 37°58' E 023°24'0 0.0
2017-Mar-19 22:34N 37°58' E 023°24'0 0.0
2017-Mar-19 21:34N 37°58' E 023°24'1 0.6
2017-Mar-19 20:34N 37°58' E 023°24'0 0.4
2017-Mar-19 19:33N 37°57' E 023°24'1 1.2
2017-Mar-19 18:34N 37°57' E 023°22'7 7.1
2017-Mar-19 17:33N 38°00' E 023°30'6 5.2
2017-Mar-19 16:27N 37°57' E 023°37'0 0.0
2017-Mar-19 15:24N 37°57' E 023°37'0 0.0
2017-Mar-19 14:33N 37°57' E 023°37'0 0.0
2017-Mar-19 13:32N 37°57' E 023°37'0 0.0
2017-Mar-19 12:32N 37°57' E 023°37'1 1.5
2017-Mar-19 11:33N 37°57' E 023°35'0 0.4
2017-Mar-19 10:34N 37°57' E 023°35'0 0.3
2017-Mar-19 09:34N 37°57' E 023°35'0 0.4
2017-Mar-19 08:34N 37°57' E 023°35'1 0.3
2017-Mar-19 04:23N 37°57' E 023°37'0 0.0
2017-Mar-18 22:14N 37°57' E 023°37'1 1.3
2017-Mar-18 21:34N 37°57' E 023°36'0 0.2
2017-Mar-18 20:33N 37°57' E 023°36'1 0.7
2017-Mar-18 19:33N 37°57' E 023°37'0 0.0
2017-Mar-18 17:33N 37°57' E 023°37'0 0.0
2017-Mar-18 16:33N 37°57' E 023°37'2 2.2
2017-Mar-18 15:34N 37°56' E 023°35'1 1.3
2017-Mar-18 14:33N 37°57' E 023°35'1 1.0
2017-Mar-18 13:31N 37°57' E 023°37'0 0.0
2017-Mar-18 12:33N 37°57' E 023°37'0 0.0
2017-Mar-18 11:29N 37°57' E 023°37'0 0.0
2017-Mar-18 10:33N 37°57' E 023°37'0 0.0
2017-Mar-18 09:32N 37°57' E 023°37'1 0.7
2017-Mar-18 08:33N 37°57' E 023°36'2 1.9
2017-Mar-18 07:33N 37°56' E 023°35'1 1.1
2017-Mar-18 06:33N 37°57' E 023°35'2 2.0
2017-Mar-18 05:33N 37°56' E 023°37'0 0.0
2017-Mar-18 04:34N 37°56' E 023°37'0 0.0
2017-Mar-16 11:33N 37°56' E 023°37'0 0.1
2017-Mar-16 10:33N 37°56' E 023°37'0 0.1
2017-Mar-16 09:33N 37°56' E 023°37'5 5.1
2017-Mar-16 08:33N 37°54' E 023°32'8 8.1
2017-Mar-16 07:33N 37°58' E 023°23'1 0.6
2017-Mar-16 06:33N 37°57' E 023°23'4 4.0
2017-Mar-16 05:33N 37°53' E 023°24'9 8.6
2017-Mar-16 04:33N 37°56' E 023°34'3 0.6
2017-Mar-16 00:18N 37°57' E 023°37'1 1.3
2017-Mar-15 23:34N 37°57' E 023°36'1 1.2
2017-Mar-15 22:33N 37°57' E 023°35'1 1.0
2017-Mar-15 21:15N 37°57' E 023°37'1 1.5
2017-Mar-15 20:33N 37°57' E 023°35'0 0.1
2017-Mar-15 19:33N 37°57' E 023°35'1 0.8
2017-Mar-15 18:06N 37°57' E 023°37'0 0.0
2017-Mar-15 17:24N 37°57' E 023°37'1 1.5
2017-Mar-15 16:33N 37°57' E 023°35'2 2.0
2017-Mar-15 15:33N 37°56' E 023°37'0 0.0
2017-Mar-15 14:33N 37°56' E 023°37'0 0.0
2017-Mar-15 13:33N 37°56' E 023°37'0 0.0
2017-Mar-15 12:33N 37°56' E 023°37'0 0.0
2017-Mar-15 11:33N 37°56' E 023°37'0 0.0
2017-Mar-15 10:32N 37°56' E 023°37'0 0.0
2017-Mar-15 08:27N 37°56' E 023°37'2 1.8
2017-Mar-15 07:33N 37°57' E 023°36'0 0.1
2017-Mar-15 06:21N 37°58' E 023°36'2 2.1
2017-Mar-15 05:34N 37°56' E 023°36'1 0.9
2017-Mar-15 04:33N 37°56' E 023°37'0 0.0
2017-Mar-15 03:33N 37°56' E 023°37'0 0.0
2017-Mar-15 02:33N 37°56' E 023°37'0 0.0
2017-Mar-15 01:33N 37°56' E 023°37'0 0.0
2017-Mar-15 00:33N 37°56' E 023°37'0 0.0
2017-Mar-14 23:33N 37°56' E 023°37'0 0.0
2017-Mar-14 22:33N 37°56' E 023°37'0 0.0
2017-Mar-14 21:33N 37°56' E 023°37'0 0.0
2017-Mar-14 20:33N 37°56' E 023°37'1 1.2
2017-Mar-14 19:33N 37°57' E 023°36'1 0.2
2017-Mar-14 15:32N 37°57' E 023°37'0 0.0
2017-Mar-14 14:27N 37°57' E 023°37'0 0.0
2017-Mar-14 13:33N 37°57' E 023°37'0 0.0
2017-Mar-14 12:31N 37°57' E 023°37'1 0.9
2017-Mar-14 11:33N 37°57' E 023°36'1 1.3
2017-Mar-14 10:33N 37°56' E 023°37'0 0.0
2017-Mar-14 09:32N 37°56' E 023°37'0 0.0
2017-Mar-14 08:33N 37°56' E 023°37'0 0.0
2017-Mar-14 07:33N 37°56' E 023°37'0 0.0
2017-Mar-14 06:33N 37°56' E 023°37'0 0.0
2017-Mar-14 05:33N 37°56' E 023°37'0 0.0
2017-Mar-14 04:33N 37°56' E 023°37'  
Track history (hours):
 
Tides and Currents Weather Stations Pressure Air Temp Water Temp Dewpoint Dewpoint Depression Visibility Wind Speed Wind Dir Waves Ship Positions

Alexander 3

Last reported at 2017-Mar-23 11:33 UTC. Time now 2017-Mar-23 12:33 UTC.
Position N 37°57' E 023°36'.

Length 38 m; draft 5.6 m.

Type: Tug. MMSI: 240733000.

Date/timePositionNaut miles runAvg speedWind from/ knotsBaromVisibWave heightAir tempDewpointWater temp
2017-Mar-23 11:33N 37°57' E 023°36'1 0.8
2017-Mar-23 10:33N 37°57' E 023°37'0 0.0
2017-Mar-23 09:33N 37°57' E 023°37'0 0.0
2017-Mar-23 08:33N 37°57' E 023°37'0 0.4
2017-Mar-23 07:24N 37°57' E 023°36'1 0.9
2017-Mar-23 06:34N 37°57' E 023°35'0 0.3
2017-Mar-23 05:33N 37°57' E 023°35'0 0.1
2017-Mar-23 04:34N 37°57' E 023°35'2 0.1
2017-Mar-22 12:12N 37°56' E 023°37'2 3.0
2017-Mar-22 11:33N 37°57' E 023°35'1 1.1
2017-Mar-22 10:33N 37°57' E 023°37'0 0.0
2017-Mar-22 09:34N 37°57' E 023°37'0 0.0
2017-Mar-22 08:31N 37°57' E 023°37'1 1.4
2017-Mar-22 07:34N 37°57' E 023°35'1 0.8
2017-Mar-22 06:23N 37°57' E 023°36'1 0.9
2017-Mar-22 05:33N 37°57' E 023°35'2 2.0
2017-Mar-22 04:33N 37°56' E 023°37'0 0.0
2017-Mar-22 03:30N 37°56' E 023°37'0 0.0
2017-Mar-21 12:29N 37°56' E 023°37'2 2.3
2017-Mar-21 11:33N 37°57' E 023°35'1 1.4
2017-Mar-21 10:33N 37°58' E 023°36'0 0.2
2017-Mar-21 09:33N 37°57' E 023°37'1 1.2
2017-Mar-21 08:33N 37°57' E 023°35'0 0.0
2017-Mar-21 07:33N 37°57' E 023°35'0 0.0
2017-Mar-21 06:29N 37°57' E 023°35'1 1.4
2017-Mar-21 05:33N 37°56' E 023°36'1 1.1
2017-Mar-21 04:32N 37°56' E 023°37'0 0.0
2017-Mar-21 02:27N 37°56' E 023°37'0 0.0
2017-Mar-21 01:32N 37°56' E 023°37'0 0.0
2017-Mar-21 00:30N 37°56' E 023°37'0 0.0
2017-Mar-20 23:32N 37°56' E 023°37'0 0.0
2017-Mar-20 22:32N 37°56' E 023°37'9 9.6
2017-Mar-20 21:33N 37°52' E 023°27'7 7.1
2017-Mar-20 20:34N 37°58' E 023°23'1 1.2
2017-Mar-20 19:33N 37°58' E 023°24'1 0.6
2017-Mar-20 18:33N 37°58' E 023°24'1 0.6
2017-Mar-20 17:34N 37°58' E 023°24'0 0.0
2017-Mar-20 16:33N 37°58' E 023°24'0 0.0
2017-Mar-20 15:33N 37°58' E 023°24'0 0.0
2017-Mar-20 14:34N 37°58' E 023°24'0 0.0
2017-Mar-20 13:33N 37°58' E 023°24'0 0.0
2017-Mar-20 12:33N 37°58' E 023°24'0 0.0
2017-Mar-20 11:33N 37°58' E 023°24'0 0.0
2017-Mar-20 10:33N 37°58' E 023°24'0 0.0
2017-Mar-20 09:33N 37°58' E 023°24'0 0.0
2017-Mar-20 08:34N 37°58' E 023°24'0 0.0
2017-Mar-20 07:33N 37°58' E 023°24'0 0.0
2017-Mar-20 06:33N 37°58' E 023°24'0 0.0
2017-Mar-20 05:33N 37°58' E 023°24'0 0.0
2017-Mar-20 04:33N 37°58' E 023°24'0 0.0
2017-Mar-20 03:34N 37°58' E 023°24'0 0.0
2017-Mar-20 02:33N 37°58' E 023°24'0 0.0
2017-Mar-20 01:34N 37°58' E 023°24'0 0.0
2017-Mar-20 00:34N 37°58' E 023°24'0 0.0
2017-Mar-19 23:34N 37°58' E 023°24'0 0.0
2017-Mar-19 22:34N 37°58' E 023°24'0 0.0
2017-Mar-19 21:34N 37°58' E 023°24'1 0.6
2017-Mar-19 20:34N 37°58' E 023°24'0 0.4
2017-Mar-19 19:33N 37°57' E 023°24'1 1.2
2017-Mar-19 18:34N 37°57' E 023°22'7 7.1
2017-Mar-19 17:33N 38°00' E 023°30'6 5.2
2017-Mar-19 16:27N 37°57' E 023°37'0 0.0
2017-Mar-19 15:24N 37°57' E 023°37'0 0.0
2017-Mar-19 14:33N 37°57' E 023°37'0 0.0
2017-Mar-19 13:32N 37°57' E 023°37'0 0.0
2017-Mar-19 12:32N 37°57' E 023°37'1 1.5
2017-Mar-19 11:33N 37°57' E 023°35'0 0.4
2017-Mar-19 10:34N 37°57' E 023°35'0 0.3
2017-Mar-19 09:34N 37°57' E 023°35'0 0.4
2017-Mar-19 08:34N 37°57' E 023°35'1 0.3
2017-Mar-19 04:23N 37°57' E 023°37'0 0.0
2017-Mar-18 22:14N 37°57' E 023°37'1 1.3
2017-Mar-18 21:34N 37°57' E 023°36'0 0.2
2017-Mar-18 20:33N 37°57' E 023°36'1 0.7
2017-Mar-18 19:33N 37°57' E 023°37'0 0.0
2017-Mar-18 17:33N 37°57' E 023°37'0 0.0
2017-Mar-18 16:33N 37°57' E 023°37'2 2.2
2017-Mar-18 15:34N 37°56' E 023°35'1 1.3
2017-Mar-18 14:33N 37°57' E 023°35'1 1.0
2017-Mar-18 13:31N 37°57' E 023°37'0 0.0
2017-Mar-18 12:33N 37°57' E 023°37'0 0.0
2017-Mar-18 11:29N 37°57' E 023°37'0 0.0
2017-Mar-18 10:33N 37°57' E 023°37'0 0.0
2017-Mar-18 09:32N 37°57' E 023°37'1 0.7
2017-Mar-18 08:33N 37°57' E 023°36'2 1.9
2017-Mar-18 07:33N 37°56' E 023°35'1 1.1
2017-Mar-18 06:33N 37°57' E 023°35'2 2.0
2017-Mar-18 05:33N 37°56' E 023°37'0 0.0
2017-Mar-18 04:34N 37°56' E 023°37'0 0.0
2017-Mar-16 11:33N 37°56' E 023°37'0 0.1
2017-Mar-16 10:33N 37°56' E 023°37'0 0.1
2017-Mar-16 09:33N 37°56' E 023°37'5 5.1
2017-Mar-16 08:33N 37°54' E 023°32'8 8.1
2017-Mar-16 07:33N 37°58' E 023°23'1 0.6
2017-Mar-16 06:33N 37°57' E 023°23'4 4.0
2017-Mar-16 05:33N 37°53' E 023°24'9 8.6
2017-Mar-16 04:33N 37°56' E 023°34'3 0.6
2017-Mar-16 00:18N 37°57' E 023°37'1 1.3
2017-Mar-15 23:34N 37°57' E 023°36'1 1.2
2017-Mar-15 22:33N 37°57' E 023°35'1 1.0
2017-Mar-15 21:15N 37°57' E 023°37'1 1.5
2017-Mar-15 20:33N 37°57' E 023°35'0 0.1
2017-Mar-15 19:33N 37°57' E 023°35'1 0.8
2017-Mar-15 18:06N 37°57' E 023°37'0 0.0
2017-Mar-15 17:24N 37°57' E 023°37'1 1.5
2017-Mar-15 16:33N 37°57' E 023°35'2 2.0
2017-Mar-15 15:33N 37°56' E 023°37'0 0.0
2017-Mar-15 14:33N 37°56' E 023°37'0 0.0
2017-Mar-15 13:33N 37°56' E 023°37'0 0.0
2017-Mar-15 12:33N 37°56' E 023°37'0 0.0
2017-Mar-15 11:33N 37°56' E 023°37'0 0.0
2017-Mar-15 10:32N 37°56' E 023°37'0 0.0
2017-Mar-15 08:27N 37°56' E 023°37'2 1.8
2017-Mar-15 07:33N 37°57' E 023°36'0 0.1
2017-Mar-15 06:21N 37°58' E 023°36'2 2.1
2017-Mar-15 05:34N 37°56' E 023°36'1 0.9
2017-Mar-15 04:33N 37°56' E 023°37'0 0.0
2017-Mar-15 03:33N 37°56' E 023°37'0 0.0
2017-Mar-15 02:33N 37°56' E 023°37'0 0.0
2017-Mar-15 01:33N 37°56' E 023°37'0 0.0
2017-Mar-15 00:33N 37°56' E 023°37'0 0.0
2017-Mar-14 23:33N 37°56' E 023°37'0 0.0
2017-Mar-14 22:33N 37°56' E 023°37'0 0.0
2017-Mar-14 21:33N 37°56' E 023°37'0 0.0
2017-Mar-14 20:33N 37°56' E 023°37'1 1.2
2017-Mar-14 19:33N 37°57' E 023°36'1 0.2
2017-Mar-14 15:32N 37°57' E 023°37'0 0.0
2017-Mar-14 14:27N 37°57' E 023°37'0 0.0
2017-Mar-14 13:33N 37°57' E 023°37'0 0.0
2017-Mar-14 12:31N 37°57' E 023°37'1 0.9
2017-Mar-14 11:33N 37°57' E 023°36'1 1.3
2017-Mar-14 10:33N 37°56' E 023°37'0 0.0
2017-Mar-14 09:32N 37°56' E 023°37'0 0.0
2017-Mar-14 08:33N 37°56' E 023°37'0 0.0
2017-Mar-14 07:33N 37°56' E 023°37'0 0.0
2017-Mar-14 06:33N 37°56' E 023°37'0 0.0
2017-Mar-14 05:33N 37°56' E 023°37'0 0.0
2017-Mar-14 04:33N 37°56' E 023°37'  

Dump ship's entire track history